Time;durP1;ratioP1;P1;durP2;ratioP2;P2;SDS_P1;SDS_P2;PMS_P1;PMS_P2;Temp;Humidity;BMP_temperature;BMP_pressure;BME280_temperature;BME280_humidity;BME280_pressure;Samples;Min_cycle;Max_cycle;Signal;HPM_P1;HPM_P2
2023/04/17 00:00:33;;;;;;;43.25;25.98;;;;;;;7.58;100.00;102280.91;10363275;28;20042;-75
2023/04/17 00:05:33;;;;;;;47.65;27.42;;;;;;;7.52;100.00;102283.00;10366065;28;20482;-75
2023/04/17 00:10:34;;;;;;;42.85;24.60;;;;;;;7.46;100.00;102282.50;10363979;28;20116;-75
2023/04/17 00:15:34;;;;;;;43.55;27.10;;;;;;;7.48;100.00;102286.16;10366160;28;20632;-75
2023/04/17 00:20:35;;;;;;;45.35;27.08;;;;;;;7.44;100.00;102271.97;10362309;28;20061;-75
2023/04/17 00:25:36;;;;;;;42.67;28.63;;;;;;;7.43;100.00;102271.81;10364640;28;20589;-75
2023/04/17 00:30:36;;;;;;;35.08;25.55;;;;;;;7.43;100.00;102285.78;10363504;28;20065;-75
2023/04/17 00:35:37;;;;;;;50.40;28.60;;;;;;;7.43;100.00;102280.56;10363126;28;20136;-75
2023/04/17 00:40:37;;;;;;;42.00;25.02;;;;;;;7.36;100.00;102270.41;10394657;28;20069;-75
2023/04/17 00:45:37;;;;;;;50.40;29.27;;;;;;;7.36;100.00;102278.25;10329905;28;20038;-75
2023/04/17 00:50:38;;;;;;;47.55;27.13;;;;;;;7.38;100.00;102274.06;10378280;28;20108;-74
2023/04/17 00:55:39;;;;;;;38.85;25.48;;;;;;;7.39;100.00;102264.53;10363974;28;20053;-75
2023/04/17 01:00:39;;;;;;;46.75;29.15;;;;;;;7.38;100.00;102268.84;10345310;28;20066;-75
2023/04/17 01:05:40;;;;;;;47.13;25.85;;;;;;;7.36;100.00;102260.00;10363996;28;20093;-75
2023/04/17 01:10:40;;;;;;;40.90;25.15;;;;;;;7.35;100.00;102264.28;10347771;28;20065;-75
2023/04/17 01:15:41;;;;;;;39.92;27.33;;;;;;;7.36;100.00;102262.59;10362933;28;20541;-75
2023/04/17 01:20:42;;;;;;;37.03;24.80;;;;;;;7.40;100.00;102266.34;10376860;28;20516;-75
2023/04/17 01:25:42;;;;;;;48.50;25.13;;;;;;;7.34;100.00;102270.28;10360689;28;20065;-76
2023/04/17 01:30:43;;;;;;;47.25;26.25;;;;;;;7.38;100.00;102263.66;10359767;28;20065;-75
2023/04/17 01:35:43;;;;;;;49.20;27.80;;;;;;;7.38;100.00;102262.72;10351780;28;20060;-74
2023/04/17 01:40:44;;;;;;;47.00;27.20;;;;;;;7.41;100.00;102262.97;10348054;28;20438;-75
2023/04/17 01:45:44;;;;;;;44.20;27.15;;;;;;;7.41;100.00;102263.91;10361168;28;20052;-75
2023/04/17 01:50:45;;;;;;;47.55;26.67;;;;;;;7.39;100.00;102264.53;10360238;28;20084;-75
2023/04/17 01:55:45;;;;;;;42.00;26.80;;;;;;;7.44;100.00;102261.56;10359192;28;20128;-75
2023/04/17 02:00:49;;;;;;;43.42;24.63;;;;;;;7.46;100.00;102259.97;10361470;28;20057;-75
2023/04/17 02:05:49;;;;;;;40.35;25.52;;;;;;;7.48;100.00;102258.41;10360625;28;20536;-75
2023/04/17 02:10:50;;;;;;;47.22;27.83;;;;;;;7.47;100.00;102264.41;10365108;28;20141;-75
2023/04/17 02:15:50;;;;;;;41.88;26.88;;;;;;;7.52;100.00;102267.38;10375663;28;20080;-75
2023/04/17 02:20:51;;;;;;;45.83;27.73;;;;;;;7.48;100.00;102258.41;10378453;28;20061;-75
2023/04/17 02:25:51;;;;;;;47.45;29.15;;;;;;;7.48;100.00;102266.22;10359330;28;20122;-76
2023/04/17 02:30:52;;;;;;;48.50;28.08;;;;;;;7.42;100.00;102270.94;10372854;28;20111;-75
2023/04/17 02:35:52;;;;;;;51.15;29.67;;;;;;;7.41;100.00;102269.09;10343358;28;20034;-75
2023/04/17 02:40:53;;;;;;;43.75;26.40;;;;;;;7.42;100.00;102275.22;10388429;28;20033;-75
2023/04/17 02:45:54;;;;;;;53.47;26.15;;;;;;;7.45;100.00;102271.19;10359701;28;20355;-75
2023/04/17 02:50:54;;;;;;;43.70;28.80;;;;;;;7.49;100.00;102262.84;10391965;28;20060;-75
2023/04/17 02:55:55;;;;;;;48.63;28.75;;;;;;;7.47;100.00;102269.63;10401491;28;20115;-75
2023/04/17 03:01:02;;;;;;;50.33;31.38;;;;;;;7.49;100.00;102268.06;10366654;28;20620;-76
2023/04/17 03:06:03;;;;;;;51.70;29.60;;;;;;;7.45;100.00;102263.38;10349225;28;20044;-75
2023/04/17 03:11:05;;;;;;;52.70;32.70;;;;;;;7.43;100.00;102266.63;10376640;28;20041;-75
2023/04/17 03:16:06;;;;;;;50.13;29.90;;;;;;;7.49;100.00;102267.13;10356269;28;20096;-74
2023/04/17 03:21:06;;;;;;;50.13;29.35;;;;;;;7.38;100.00;102267.94;10362523;28;20092;-75
2023/04/17 03:26:07;;;;;;;49.90;28.23;;;;;;;7.42;100.00;102272.59;10368542;28;20117;-76
2023/04/17 03:31:07;;;;;;;51.50;33.75;;;;;;;7.37;100.00;102264.44;10369577;28;20053;-75
2023/04/17 03:36:08;;;;;;;50.75;29.52;;;;;;;7.41;100.00;102265.56;10381698;28;20108;-76
2023/04/17 03:41:12;;;;;;;44.28;27.27;;;;;;;7.40;100.00;102269.91;10392780;28;20412;-75
2023/04/17 03:46:12;;;;;;;49.10;29.33;;;;;;;7.43;100.00;102269.22;10375837;28;20132;-75
2023/04/17 03:51:14;;;;;;;50.70;31.05;;;;;;;7.39;100.00;102267.16;10365405;28;20034;-75
2023/04/17 03:56:15;;;;;;;55.22;30.90;;;;;;;7.35;100.00;102268.59;10346390;28;20188;-75
2023/04/17 04:01:15;;;;;;;63.05;32.17;;;;;;;7.37;100.00;102272.25;10364144;28;20125;-76
2023/04/17 04:06:19;;;;;;;47.53;31.17;;;;;;;7.38;100.00;102266.25;10380744;28;20132;-75
2023/04/17 04:11:19;;;;;;;53.30;31.75;;;;;;;7.39;100.00;102269.75;10379177;28;20485;-75
2023/04/17 04:16:20;;;;;;;52.42;31.27;;;;;;;7.44;100.00;102271.03;10364013;28;20077;-75
2023/04/17 04:21:20;;;;;;;55.40;37.45;;;;;;;7.43;100.00;102271.81;10360969;28;20042;-75
2023/04/17 04:26:21;;;;;;;56.72;34.75;;;;;;;7.42;100.00;102275.22;10364924;28;20531;-75
2023/04/17 04:31:21;;;;;;;59.40;33.33;;;;;;;7.40;100.00;102276.78;10342113;28;20121;-74
2023/04/17 04:36:22;;;;;;;56.65;34.53;;;;;;;7.38;100.00;102286.16;10358266;28;20129;-77
2023/04/17 04:41:24;;;;;;;62.03;38.43;;;;;;;7.37;100.00;102285.28;10354851;28;20129;-75
2023/04/17 04:46:24;;;;;;;68.72;41.55;;;;;;;7.35;100.00;102292.94;10348468;28;20083;-75
2023/04/17 04:51:25;;;;;;;68.50;38.47;;;;;;;7.32;100.00;102300.50;10331633;28;20567;-76
2023/04/17 04:56:26;;;;;;;63.17;42.23;;;;;;;7.32;100.00;102291.78;10332863;28;20058;-76
2023/04/17 05:01:28;;;;;;;61.05;38.75;;;;;;;7.33;100.00;102301.41;10328424;28;20093;-75
2023/04/17 05:06:28;;;;;;;;;;;;;;;7.33;100.00;102299.72;10374900;28;20046;-75
2023/04/17 05:11:29;;;;;;;67.53;41.10;;;;;;;7.31;100.00;102308.19;10343140;28;20380;-75
2023/04/17 05:16:29;;;;;;;66.68;38.80;;;;;;;7.28;100.00;102308.84;10366430;28;20359;-75
2023/04/17 05:21:30;;;;;;;82.97;42.80;;;;;;;7.28;100.00;102315.75;10361246;28;20069;-75
2023/04/17 05:26:30;;;;;;;64.53;40.33;;;;;;;7.31;100.00;102316.00;10359992;28;20038;-75
2023/04/17 05:31:31;;;;;;;68.43;39.95;;;;;;;7.32;100.00;102320.44;10348749;28;20054;-75
2023/04/17 05:36:32;;;;;;;61.42;39.03;;;;;;;7.33;100.00;102322.25;10381867;28;20034;-76
2023/04/17 05:41:32;;;;;;;62.47;37.28;;;;;;;7.39;100.00;102324.44;10357425;28;20041;-74
2023/04/17 05:46:33;;;;;;;57.00;37.17;;;;;;;7.38;100.00;102328.75;10361967;28;20129;-74
2023/04/17 05:51:33;;;;;;;57.92;37.15;;;;;;;7.40;100.00;102327.19;10359567;28;20450;-76
2023/04/17 05:56:33;;;;;;;61.42;37.05;;;;;;;7.42;100.00;102333.44;10352398;28;20120;-75
2023/04/17 06:01:35;;;;;;;60.65;38.42;;;;;;;7.47;100.00;102323.41;10388173;28;20069;-74
2023/04/17 06:06:35;;;;;;;64.50;38.05;;;;;;;7.59;100.00;102314.00;10359895;28;20041;-74
2023/04/17 06:11:36;;;;;;;56.47;36.30;;;;;;;7.70;100.00;102325.31;10359891;28;20110;-75
2023/04/17 06:16:36;;;;;;;56.78;37.17;;;;;;;7.77;100.00;102324.13;10359871;28;20041;-75
2023/04/17 06:21:37;;;;;;;49.33;32.05;;;;;;;7.81;100.00;102323.59;10326391;28;20501;-74
2023/04/17 06:26:37;;;;;;;45.70;32.63;;;;;;;7.85;100.00;102328.28;10359833;28;20046;-76
2023/04/17 06:31:38;;;;;;;52.97;32.63;;;;;;;7.96;100.00;102333.44;10358752;28;20125;-76
2023/04/17 06:36:38;;;;;;;54.65;35.53;;;;;;;8.00;100.00;102341.66;10359782;28;20049;-76
2023/04/17 06:41:39;;;;;;;48.78;32.80;;;;;;;7.96;100.00;102350.03;10358064;28;20041;-76
2023/04/17 06:46:39;;;;;;;57.08;35.85;;;;;;;7.91;100.00;102354.84;10357757;28;20600;-77
2023/04/17 06:51:40;;;;;;;53.15;32.58;;;;;;;7.86;100.00;102358.75;10357673;28;20022;-76
2023/04/17 06:56:40;;;;;;;57.42;33.78;;;;;;;7.80;100.00;102366.06;10363912;28;20065;-76
2023/04/17 07:01:41;;;;;;;54.83;35.42;;;;;;;7.85;100.00;102359.56;10391704;28;20120;-76
2023/04/17 07:06:41;;;;;;;61.85;33.70;;;;;;;7.92;100.00;102354.06;10407844;28;20072;-75
2023/04/17 07:11:42;;;;;;;57.47;34.13;;;;;;;8.14;100.00;102366.25;10367318;28;20442;-76
2023/04/17 07:16:42;;;;;;;56.65;33.97;;;;;;;8.35;100.00;102376.59;10365924;28;20120;-76
2023/04/17 07:21:43;;;;;;;51.30;33.17;;;;;;;8.45;100.00;102375.66;10365944;28;20034;-76
2023/04/17 07:26:44;;;;;;;44.58;29.27;;;;;;;8.47;100.00;102385.41;10364089;28;20389;-76
2023/04/17 07:31:44;;;;;;;54.08;33.10;;;;;;;8.50;100.00;102392.63;10367032;28;20168;-75
2023/04/17 07:36:46;;;;;;;52.17;32.40;;;;;;;8.55;100.00;102393.00;10364535;28;20125;-75
2023/04/17 07:41:47;;;;;;;49.15;29.25;;;;;;;8.58;100.00;102399.38;10363676;28;20100;-76
2023/04/17 07:46:47;;;;;;;49.70;32.50;;;;;;;8.88;100.00;102393.84;10364096;28;20057;-76
2023/04/17 07:51:48;;;;;;;57.97;32.38;;;;;;;8.90;100.00;102401.03;10365450;28;20467;-75
2023/04/17 07:56:49;;;;;;;47.65;28.27;;;;;;;8.82;100.00;102400.41;10365621;28;20076;-77
2023/04/17 08:01:51;;;;;;;49.90;30.55;;;;;;;8.86;100.00;102403.25;10330101;28;20094;-76
2023/04/17 08:06:51;;;;;;;40.67;29.52;;;;;;;8.78;100.00;102392.22;10362983;28;20045;-76
2023/04/17 08:11:52;;;;;;;47.42;29.13;;;;;;;8.86;100.00;102393.75;10365555;28;20032;-76
2023/04/17 08:16:52;;;;;;;47.45;31.00;;;;;;;8.94;100.00;102397.88;10363324;28;20104;-77
2023/04/17 08:21:59;;;;;;;45.15;27.40;;;;;;;9.12;100.00;102402.72;10364391;28;20121;-78
2023/04/17 08:27:00;;;;;;;43.90;28.65;;;;;;;9.33;100.00;102394.72;10332167;28;20026;-76
2023/04/17 08:32:00;;;;;;;46.78;29.50;;;;;;;9.93;100.00;102398.38;10362966;28;20117;-77
2023/04/17 08:37:01;;;;;;;42.30;26.17;;;;;;;10.19;100.00;102395.06;10364200;28;20064;-78
2023/04/17 08:42:05;;;;;;;44.58;29.27;;;;;;;10.56;100.00;102396.88;10363247;28;20148;-77
2023/04/17 08:47:07;;;;;;;37.00;26.23;;;;;;;11.11;100.00;102397.25;10344068;28;20026;-78
2023/04/17 08:52:08;;;;;;;41.70;26.98;;;;;;;11.56;100.00;102397.72;10321007;28;20434;-78
2023/04/17 08:57:09;;;;;;;40.65;27.10;;;;;;;11.13;100.00;102400.91;10323587;28;20121;-77
2023/04/17 09:02:09;;;;;;;39.30;24.17;;;;;;;10.94;100.00;102406.56;10323996;28;20117;-77
2023/04/17 09:07:11;;;;;;;39.28;24.65;;;;;;;11.04;100.00;102409.84;10383264;28;20493;-77
2023/04/17 09:12:11;;;;;;;42.67;27.10;;;;;;;11.09;100.00;102408.44;10403314;28;20030;-78
2023/04/17 09:17:13;;;;;;;42.13;24.08;;;;;;;11.18;100.00;102405.53;10384972;28;20613;-77
2023/04/17 09:22:20;;;;;;;37.38;25.95;;;;;;;11.75;100.00;102406.84;10394669;28;20048;-78
2023/04/17 09:27:25;;;;;;;38.22;22.38;;;;;;;12.31;100.00;102389.53;10360515;28;20034;-78
2023/04/17 09:32:26;;;;;;;35.08;24.30;;;;;;;12.44;100.00;102389.53;10366249;28;20046;-77
2023/04/17 09:37:52;;;;;;;35.25;24.80;;;;;;;12.04;100.00;102400.94;10360509;28;20045;-78
2023/04/17 09:43:00;;;;;;;39.08;25.25;;;;;;;12.04;100.00;102398.31;10355926;28;20513;-77
2023/04/17 09:48:09;;;;;;;34.63;23.58;;;;;;;11.48;100.00;102400.59;10360148;28;20506;-75
2023/04/17 09:53:10;;;;;;;42.65;26.65;;;;;;;11.29;100.00;102409.81;10342209;28;20037;-77
2023/04/17 09:58:10;;;;;;;35.25;23.27;;;;;;;11.34;100.00;102405.81;10355113;28;20056;-76
2023/04/17 10:03:12;;;;;;;55.80;26.38;;;;;;;11.22;100.00;102410.19;10375424;28;20546;-77
2023/04/17 10:08:12;;;;;;;33.33;24.17;;;;;;;12.15;100.00;102400.72;10338134;28;20122;-76
2023/04/17 10:13:13;;;;;;;35.20;22.15;;;;;;;14.21;100.00;102394.91;10367545;28;20038;-77
2023/04/17 10:18:23;;;;;;;36.40;24.23;;;;;;;15.03;100.00;102392.34;10353052;28;21891;-77
2023/04/17 10:23:31;;;;;;;36.72;23.92;;;;;;;15.26;100.00;102390.94;10387208;28;20116;-75
2023/04/17 10:28:48;;;;;;;34.60;22.45;;;;;;;14.20;100.00;102379.94;10372282;28;20117;-77
2023/04/17 10:33:49;;;;;;;38.88;25.65;;;;;;;13.51;100.00;102393.47;10353606;28;20038;-76
2023/04/17 10:38:49;;;;;;;39.17;26.30;;;;;;;15.03;100.00;102382.72;10372782;28;20489;-76
2023/04/17 10:43:50;;;;;;;30.58;21.98;;;;;;;15.02;100.00;102380.00;10366185;28;20036;-75
2023/04/17 10:48:52;;;;;;;32.83;22.58;;;;;;;15.67;100.00;102368.44;10365882;28;20386;-76
2023/04/17 10:53:52;;;;;;;39.33;25.80;;;;;;;18.03;98.13;102363.31;10349048;28;20037;-76
2023/04/17 10:58:57;;;;;;;26.77;19.20;;;;;;;18.47;83.20;102363.28;10358175;28;20038;-75
2023/04/17 11:04:00;;;;;;;29.58;21.20;;;;;;;17.04;91.69;102364.38;10374236;28;20049;-75
2023/04/17 11:09:01;;;;;;;27.88;18.80;;;;;;;16.97;96.97;102362.31;10383539;28;20720;-75
2023/04/17 11:14:05;;;;;;;25.92;18.98;;;;;;;17.28;93.14;102358.38;10375789;28;20079;-74
2023/04/17 11:19:10;;;;;;;27.42;18.85;;;;;;;19.08;75.00;102344.34;10356376;28;20520;-75
2023/04/17 11:24:10;;;;;;;26.45;18.85;;;;;;;19.35;71.83;102340.88;10384018;28;20072;-76
2023/04/17 11:29:18;;;;;;;26.40;18.88;;;;;;;17.45;74.61;102349.44;10358684;28;20124;-75
2023/04/17 11:34:19;;;;;;;23.02;18.30;;;;;;;16.55;93.83;102342.78;10348039;28;20064;-75
2023/04/17 11:39:21;;;;;;;23.05;16.05;;;;;;;18.28;72.86;102342.19;10353587;28;20103;-76
2023/04/17 11:44:22;;;;;;;18.52;14.05;;;;;;;18.26;69.38;102342.16;10343849;28;20082;-75
2023/04/17 11:49:30;;;;;;;18.50;14.15;;;;;;;20.21;56.29;102337.50;10349908;28;20044;-75
2023/04/17 11:54:35;;;;;;;21.33;12.85;;;;;;;20.80;55.42;102344.59;10350354;28;20107;-75
2023/04/17 11:59:36;;;;;;;26.50;18.77;;;;;;;21.32;48.09;102343.34;10333069;28;20048;-76
2023/04/17 12:04:38;;;;;;;24.35;16.98;;;;;;;20.34;49.61;102346.78;10383919;28;20038;-76
2023/04/17 12:09:38;;;;;;;28.25;20.52;;;;;;;21.22;46.73;102332.44;10361137;28;20148;-75
2023/04/17 12:14:39;;;;;;;24.63;18.63;;;;;;;22.09;44.85;102336.38;10359723;28;20037;-79
2023/04/17 12:19:39;;;;;;;24.27;19.50;;;;;;;20.94;46.01;102342.34;10373609;28;20450;-80
2023/04/17 12:24:40;;;;;;;19.57;14.67;;;;;;;20.19;47.73;102339.22;10388041;28;20081;-76
2023/04/17 12:29:40;;;;;;;25.07;15.30;;;;;;;21.49;47.12;102335.78;10393946;28;20072;-76
2023/04/17 12:34:41;;;;;;;20.60;13.37;;;;;;;21.59;45.64;102318.28;10379294;28;20124;-76
2023/04/17 12:39:41;;;;;;;18.70;12.47;;;;;;;19.80;44.83;102319.38;10374870;28;20124;-76
2023/04/17 12:44:42;;;;;;;19.27;12.57;;;;;;;20.38;47.83;102319.41;10364101;28;20055;-76
2023/04/17 12:49:42;;;;;;;20.38;13.75;;;;;;;20.98;44.44;102319.38;10381592;28;20557;-76
2023/04/17 12:54:43;;;;;;;17.87;14.30;;;;;;;21.84;45.16;102320.72;10339327;28;20117;-76
2023/04/17 12:59:43;;;;;;;16.83;13.10;;;;;;;19.77;45.39;102324.56;10371993;28;20121;-77
2023/04/17 13:04:44;;;;;;;17.33;13.93;;;;;;;19.47;47.66;102316.47;10357851;28;20046;-77
2023/04/17 13:09:45;;;;;;;21.73;14.55;;;;;;;19.78;49.08;102315.75;10361265;28;20112;-78
2023/04/17 13:14:45;;;;;;;19.80;15.53;;;;;;;20.33;48.67;102312.16;10361388;28;20045;-77
2023/04/17 13:19:46;;;;;;;14.43;12.93;;;;;;;20.00;46.68;102312.91;10404145;28;20038;-77
2023/04/17 13:24:46;;;;;;;17.17;13.87;;;;;;;20.99;44.84;102315.84;10320259;28;20038;-77
2023/04/17 13:29:47;;;;;;;16.27;13.00;;;;;;;21.10;44.85;102305.50;10357992;28;20050;-77
2023/04/17 13:34:47;;;;;;;19.93;13.43;;;;;;;20.74;46.72;102300.94;10362428;28;20156;-78
2023/04/17 13:39:48;;;;;;;19.35;13.13;;;;;;;20.05;44.86;102301.59;10319623;28;20133;-77
2023/04/17 13:44:48;;;;;;;16.02;12.48;;;;;;;19.50;50.77;102298.91;10360755;28;20068;-77
2023/04/17 13:49:49;;;;;;;16.45;13.18;;;;;;;19.66;46.53;102297.66;10344706;28;20133;-80
2023/04/17 13:54:50;;;;;;;20.77;16.17;;;;;;;17.05;53.55;102294.78;10331038;28;20035;-77
2023/04/17 13:59:50;;;;;;;15.68;12.60;;;;;;;18.42;51.94;102295.03;10343431;28;20120;-77
2023/04/17 14:04:51;;;;;;;15.35;12.80;;;;;;;20.25;45.26;102290.66;10343978;28;20084;-78
2023/04/17 14:09:51;;;;;;;15.77;13.25;;;;;;;20.72;45.26;102284.91;10355700;28;20120;-78
2023/04/17 14:14:52;;;;;;;20.97;14.40;;;;;;;19.80;42.42;102282.19;10344491;28;20434;-78
2023/04/17 14:19:52;;;;;;;14.63;11.83;;;;;;;19.17;45.41;102283.63;10375784;28;20126;-77
2023/04/17 14:24:53;;;;;;;16.10;12.80;;;;;;;19.66;44.89;102276.41;10301955;28;20041;-77
2023/04/17 14:29:53;;;;;;;15.10;11.60;;;;;;;17.63;49.36;102276.91;10319465;28;20184;-76
2023/04/17 14:34:54;;;;;;;21.38;14.38;;;;;;;16.96;49.53;102279.38;10362898;28;20089;-77
2023/04/17 14:39:56;;;;;;;15.75;12.63;;;;;;;16.76;51.21;102281.16;10353114;28;20068;-77
2023/04/17 14:44:56;;;;;;;17.48;11.88;;;;;;;18.32;48.09;102260.25;10357617;28;20494;-77
2023/04/17 14:49:57;;;;;;;21.05;13.93;;;;;;;19.41;46.49;102257.88;10346992;28;20065;-77
2023/04/17 14:54:57;;;;;;;12.32;9.13;;;;;;;19.53;47.69;102258.25;10289270;28;20547;-77
2023/04/17 14:59:58;;;;;;;13.50;10.03;;;;;;;19.45;44.77;102249.16;10307420;28;20130;-77
2023/04/17 15:04:58;;;;;;;16.23;12.15;;;;;;;17.25;46.44;102263.00;10318682;28;20088;-77
2023/04/17 15:09:59;;;;;;;17.33;9.70;;;;;;;16.41;49.99;102260.19;10351255;28;20030;-78
2023/04/17 15:14:59;;;;;;;15.63;9.02;;;;;;;15.89;50.38;102252.47;10332352;28;20125;-77
2023/04/17 15:20:00;;;;;;;15.00;10.80;;;;;;;17.42;51.68;102242.53;10363549;28;20088;-77
2023/04/17 15:25:00;;;;;;;14.07;9.30;;;;;;;17.57;46.50;102242.25;10353960;28;20081;-78
2023/04/17 15:30:03;;;;;;;11.10;9.38;;;;;;;16.07;49.12;102249.81;10347580;28;20038;-76
2023/04/17 15:35:04;;;;;;;14.07;8.95;;;;;;;15.35;50.86;102238.44;10355968;28;20092;-75
2023/04/17 15:40:06;;;;;;;16.73;10.52;;;;;;;16.01;53.32;102245.13;10339946;28;20565;-78
2023/04/17 15:45:07;;;;;;;17.65;10.20;;;;;;;16.15;50.67;102246.69;10338509;28;20498;-78
2023/04/17 15:50:08;;;;;;;12.52;8.30;;;;;;;16.26;48.42;102244.56;10349401;28;20049;-78
2023/04/17 15:55:09;;;;;;;26.65;8.75;;;;;;;16.07;51.88;102249.81;10343141;28;20034;-78
2023/04/17 16:00:10;;;;;;;17.20;10.70;;;;;;;15.51;52.69;102242.72;10345057;28;20498;-77
2023/04/17 16:05:10;;;;;;;15.63;10.18;;;;;;;14.98;53.36;102248.00;10354624;28;20050;-77
2023/04/17 16:10:14;;;;;;;16.95;8.70;;;;;;;14.63;54.47;102235.63;10349475;28;20070;-76
2023/04/17 16:15:15;;;;;;;11.95;8.65;;;;;;;14.60;53.57;102236.34;10338544;28;20042;-79
2023/04/17 16:20:16;;;;;;;17.33;8.40;;;;;;;14.31;51.92;102243.59;10353263;28;20121;-78
2023/04/17 16:25:16;;;;;;;26.08;10.85;;;;;;;13.77;52.50;102241.50;10349023;28;20048;-80
2023/04/17 16:30:20;;;;;;;14.93;9.60;;;;;;;13.46;56.85;102239.75;10337306;28;20117;-76
2023/04/17 16:35:20;;;;;;;14.10;9.18;;;;;;;13.63;53.96;102239.81;10371443;28;20038;-76
2023/04/17 16:40:21;;;;;;;13.32;8.70;;;;;;;13.84;52.33;102241.88;10364238;28;20487;-76
2023/04/17 16:45:21;;;;;;;11.48;7.05;;;;;;;13.72;54.40;102248.25;10360281;28;20048;-76
2023/04/17 16:50:22;;;;;;;14.75;8.15;;;;;;;13.41;54.67;102246.44;10388044;28;20037;-76
2023/04/17 16:55:22;;;;;;;8.90;6.45;;;;;;;13.14;54.84;102244.00;10320687;28;20474;-77
2023/04/17 17:00:23;;;;;;;12.02;6.55;;;;;;;12.98;54.92;102242.22;10346636;28;20038;-76
2023/04/17 17:05:23;;;;;;;9.38;6.38;;;;;;;13.00;56.75;102248.47;10363327;28;22000;-77
2023/04/17 17:10:24;;;;;;;10.70;6.43;;;;;;;12.99;54.18;102244.03;10357344;28;20041;-76
2023/04/17 17:15:24;;;;;;;10.73;6.25;;;;;;;12.99;55.49;102241.41;10328374;28;20046;-77
2023/04/17 17:20:25;;;;;;;10.18;6.95;;;;;;;12.80;59.07;102249.88;10342948;28;20061;-76
2023/04/17 17:25:28;;;;;;;9.27;6.97;;;;;;;12.74;59.00;102246.88;10344280;28;20080;-78
2023/04/17 17:30:29;;;;;;;8.52;6.20;;;;;;;12.63;58.88;102243.63;10359134;28;20045;-77
2023/04/17 17:35:29;;;;;;;12.93;6.97;;;;;;;12.58;56.72;102235.44;10374793;28;20120;-76
2023/04/17 17:40:30;;;;;;;9.27;6.43;;;;;;;12.40;58.59;102244.81;10359738;28;20116;-79
2023/04/17 17:45:30;;;;;;;12.23;6.80;;;;;;;12.29;58.25;102239.78;10361396;28;20493;-77
2023/04/17 17:50:31;;;;;;;14.70;8.20;;;;;;;12.12;59.83;102238.75;10330225;28;20042;-77
2023/04/17 17:55:35;;;;;;;15.30;7.90;;;;;;;11.82;64.13;102240.25;10325142;28;20426;-81
2023/04/17 18:00:36;;;;;;;10.43;7.68;;;;;;;11.57;66.30;102244.84;10358644;28;20111;-78
2023/04/17 18:05:37;;;;;;;14.93;8.35;;;;;;;11.42;68.52;102247.34;10360012;28;20573;-77
2023/04/17 18:10:37;;;;;;;13.75;7.78;;;;;;;11.11;75.68;102252.25;10343780;28;20080;-77
2023/04/17 18:15:38;;;;;;;13.35;7.85;;;;;;;10.67;87.98;102257.16;10357159;28;20423;-78
2023/04/17 18:20:39;;;;;;;14.85;9.18;;;;;;;10.51;86.67;102255.16;10389876;28;20459;-78
2023/04/17 18:25:39;;;;;;;11.70;8.27;;;;;;;10.48;86.90;102261.91;10358875;28;20058;-77
2023/04/17 18:30:41;;;;;;;11.43;7.90;;;;;;;10.30;89.90;102262.41;10350302;28;20393;-78
2023/04/17 18:35:41;;;;;;;13.27;7.43;;;;;;;10.04;98.63;102260.50;10360701;28;20041;-76
2023/04/17 18:40:42;;;;;;;12.15;8.55;;;;;;;9.66;100.00;102265.69;10360086;28;20038;-77
2023/04/17 18:45:42;;;;;;;14.50;9.73;;;;;;;9.19;100.00;102271.78;10358646;28;20120;-76
2023/04/17 18:50:43;;;;;;;16.10;8.80;;;;;;;8.81;100.00;102275.00;10361704;28;20119;-76
2023/04/17 18:55:43;;;;;;;14.13;8.25;;;;;;;8.46;100.00;102276.63;10362930;28;20184;-76
2023/04/17 19:00:44;;;;;;;21.40;9.75;;;;;;;8.02;100.00;102277.53;10359671;28;20042;-76
2023/04/17 19:05:45;;;;;;;10.82;7.75;;;;;;;7.69;100.00;102286.09;10362598;28;20179;-77
2023/04/17 19:10:45;;;;;;;13.82;9.50;;;;;;;7.51;100.00;102285.50;10375940;28;20105;-79
2023/04/17 19:15:46;;;;;;;15.07;8.10;;;;;;;7.11;100.00;102283.06;10364217;28;20431;-77
2023/04/17 19:20:46;;;;;;;16.55;10.57;;;;;;;6.82;100.00;102290.22;10350610;28;20072;-77
2023/04/17 19:25:53;;;;;;;15.70;10.15;;;;;;;6.62;100.00;102293.69;10351561;28;20571;-77
2023/04/17 19:30:55;;;;;;;13.68;9.38;;;;;;;6.52;100.00;102298.88;10358615;28;20066;-77
2023/04/17 19:35:57;;;;;;;15.63;9.63;;;;;;;6.30;100.00;102291.81;10340075;28;20500;-77
2023/04/17 19:41:25;;;;;;;13.75;9.52;;;;;;;6.09;100.00;102303.84;10344101;28;20034;-77
2023/04/17 19:46:26;;;;;;;16.70;10.23;;;;;;;5.96;100.00;102302.72;10338189;28;20060;-77
2023/04/17 19:51:26;;;;;;;15.20;11.10;;;;;;;5.98;100.00;102298.56;10364346;28;20042;-77
2023/04/17 19:56:27;;;;;;;14.55;9.07;;;;;;;5.93;100.00;102311.91;10340785;28;20061;-77
2023/04/17 20:01:28;;;;;;;13.18;8.27;;;;;;;5.83;100.00;102307.59;10338104;28;20070;-77
2023/04/17 20:06:29;;;;;;;16.10;10.43;;;;;;;5.75;100.00;102300.78;10361207;28;20057;-77
2023/04/17 20:11:29;;;;;;;15.10;10.63;;;;;;;5.62;100.00;102299.69;10350709;28;20041;-77
2023/04/17 20:16:30;;;;;;;13.85;10.05;;;;;;;5.57;100.00;102293.16;10363878;28;20144;-77
2023/04/17 20:21:31;;;;;;;26.05;9.35;;;;;;;5.47;100.00;102300.88;10340955;28;20125;-77
2023/04/17 20:26:31;;;;;;;16.58;10.40;;;;;;;5.29;100.00;102301.91;10364947;28;20086;-77
2023/04/17 20:31:35;;;;;;;15.38;10.18;;;;;;;5.29;100.00;102299.31;10360351;28;20069;-77
2023/04/17 20:36:35;;;;;;;15.23;12.10;;;;;;;5.21;100.00;102304.59;10333866;28;20176;-77
2023/04/17 20:41:36;;;;;;;13.73;11.55;;;;;;;5.11;100.00;102292.44;10364081;28;20038;-77
2023/04/17 20:46:36;;;;;;;19.42;11.82;;;;;;;4.97;100.00;102305.03;10364805;28;20030;-77
2023/04/17 20:51:37;;;;;;;20.33;15.00;;;;;;;4.91;100.00;102296.66;10322589;28;20528;-77
2023/04/17 20:56:37;;;;;;;22.45;13.52;;;;;;;4.92;100.00;102297.59;10374725;28;20117;-77
2023/04/17 21:01:38;;;;;;;16.45;13.07;;;;;;;4.92;100.00;102295.00;10359573;28;20500;-76
2023/04/17 21:06:38;;;;;;;16.30;12.27;;;;;;;5.06;100.00;102297.22;10332134;28;20057;-77
2023/04/17 21:11:38;;;;;;;18.83;11.63;;;;;;;5.28;100.00;102300.09;10365343;28;20073;-77
2023/04/17 21:16:40;;;;;;;17.20;12.35;;;;;;;5.41;100.00;102294.34;10370029;28;20137;-77
2023/04/17 21:21:40;;;;;;;20.13;12.53;;;;;;;5.43;100.00;102297.06;10341981;28;20034;-77
2023/04/17 21:26:41;;;;;;;19.45;13.90;;;;;;;5.39;100.00;102290.69;10336657;28;20128;-76
2023/04/17 21:31:41;;;;;;;23.67;18.67;;;;;;;5.65;100.00;102286.97;10348782;28;20072;-77
2023/04/17 21:36:42;;;;;;;26.50;18.48;;;;;;;6.93;100.00;102282.44;10341378;28;20030;-77
2023/04/17 21:41:42;;;;;;;22.15;15.93;;;;;;;7.61;100.00;102275.06;10337571;28;20377;-77
2023/04/17 21:46:46;;;;;;;27.85;15.68;;;;;;;7.87;100.00;102271.06;10365389;28;20045;-77
2023/04/17 21:51:46;;;;;;;19.90;14.52;;;;;;;8.04;100.00;102270.72;10358772;28;20046;-77
2023/04/17 21:56:47;;;;;;;17.95;12.98;;;;;;;8.20;100.00;102278.06;10361376;28;20061;-77
2023/04/17 22:01:47;;;;;;;19.33;11.30;;;;;;;8.32;100.00;102272.00;10359943;28;20076;-77
2023/04/17 22:06:50;;;;;;;18.02;12.63;;;;;;;8.30;100.00;102273.59;10342504;28;20062;-77
2023/04/17 22:11:51;;;;;;;19.33;11.02;;;;;;;8.07;100.00;102273.59;10358041;28;20109;-77
2023/04/17 22:16:51;;;;;;;19.00;11.50;;;;;;;7.86;100.00;102275.34;10364177;28;20482;-78
2023/04/17 22:21:52;;;;;;;21.80;11.40;;;;;;;7.64;100.00;102277.91;10329004;28;20049;-77
2023/04/17 22:37:51;;;;;;;13.75;11.13;;;;;;;7.30;100.00;102285.53;10390963;28;20088;-77
2023/04/17 22:54:06;;;;;;;14.75;10.35;;;;;;;6.80;100.00;102291.78;10355825;28;20046;-78